Time;durP1;ratioP1;P1;durP2;ratioP2;P2;SDS_P1;SDS_P2;PMS_P1;PMS_P2;Temp;Humidity;BMP_temperature;BMP_pressure;BME280_temperature;BME280_humidity;BME280_pressure;Samples;Min_cycle;Max_cycle;Signal;HPM_P1;HPM_P2
2023/07/11 00:02:20;;;;;;;;;;;;;;;20.04;77.25;101874.59;20691689;28;20555;-60
2023/07/11 00:12:42;;;;;;;;;;;;;;;19.89;77.76;101881.50;20705374;28;20012;-59
2023/07/11 00:23:03;;;;;;;;;;;;;;;19.81;78.33;101867.06;20705735;28;19921;-60
2023/07/11 00:33:25;;;;;;;;;;;;;;;19.67;77.57;101870.38;20683774;28;20014;-59
2023/07/11 00:43:46;;;;;;;;;;;;;;;19.57;75.84;101863.91;20679301;28;20406;-59
2023/07/11 00:54:10;;;;;;;;;;;;;;;19.54;76.68;101844.84;20683254;28;19921;-60
2023/07/11 01:04:32;;;;;;;;;;;;;;;19.44;76.05;101838.34;20706212;28;19941;-59
2023/07/11 01:14:53;;;;;;;;;;;;;;;19.52;75.33;101829.13;20735184;28;19922;-59
2023/07/11 01:25:15;;;;;;;;;;;;;;;19.59;75.77;101806.91;20732773;28;20021;-61
2023/07/11 01:35:36;;;;;;;;;;;;;;;19.59;76.33;101799.03;20697305;28;19921;-60
2023/07/11 01:45:58;;;;;;;;;;;;;;;19.60;77.18;101784.09;20700208;28;19928;-59
2023/07/11 01:56:20;;;;;;;;;;;;;;;19.59;77.71;101775.38;20699276;28;20382;-61
2023/07/11 02:06:42;;;;;;;;;;;;;;;19.56;78.40;101774.66;20695904;28;19929;-59
2023/07/11 02:17:03;;;;;;;;;;;;;;;19.52;78.78;101760.03;20699277;28;19952;-60
2023/07/11 02:27:25;;;;;;;;;;;;;;;19.47;79.21;101751.50;20710060;28;20011;-60
2023/07/11 02:37:47;;;;;;;;;;;;;;;19.48;79.29;101753.22;20693828;28;20406;-59
2023/07/11 02:48:08;;;;;;;;;;;;;;;19.41;79.62;101731.69;20694358;28;19928;-59
2023/07/11 02:58:29;;;;;;;;;;;;;;;19.30;80.35;101720.03;20694972;28;19925;-61
2023/07/11 03:08:51;;;;;;;;;;;;;;;19.16;81.55;101704.97;20704390;28;19943;-60
2023/07/11 03:19:12;;;;;;;;;;;;;;;19.10;82.02;101693.97;20699329;28;19921;-59
2023/07/11 03:29:34;;;;;;;;;;;;;;;19.08;82.00;101690.56;20724724;28;20386;-60
2023/07/11 03:39:55;;;;;;;;;;;;;;;19.06;82.02;101678.34;20708492;28;20364;-59
2023/07/11 03:50:17;;;;;;;;;;;;;;;19.02;81.80;101671.59;20688251;28;19926;-59
2023/07/11 04:00:38;;;;;;;;;;;;;;;19.13;81.26;101667.56;20690395;28;19933;-60
2023/07/11 04:11:00;;;;;;;;;;;;;;;19.27;80.91;101654.53;20689031;28;20412;-59
2023/07/11 04:21:21;;;;;;;;;;;;;;;19.36;79.23;101654.94;20692492;28;19925;-60
2023/07/11 04:31:43;;;;;;;;;;;;;;;19.46;79.06;101634.31;20693552;28;19925;-59
2023/07/11 04:42:04;;;;;;;;;;;;;;;19.63;78.10;101626.38;20705823;28;19948;-60
2023/07/11 04:52:26;;;;;;;;;;;;;;;19.81;76.62;101614.84;20706187;28;19922;-60
2023/07/11 05:02:48;;;;;;;;;;;;;;;19.98;76.74;101609.47;20705390;28;20488;-60
2023/07/11 05:13:09;;;;;;;;;;;;;;;20.19;75.07;101589.91;20701503;28;19929;-60
2023/07/11 05:23:35;;;;;;;;;;;;;;;20.41;74.39;101584.25;20705668;28;19968;-62
2023/07/11 05:33:56;;;;;;;;;;;;;;;20.57;73.99;101574.50;20732779;28;19928;-59
2023/07/11 05:44:18;;;;;;;;;;;;;;;20.80;73.04;101560.84;20701399;28;19926;-60
2023/07/11 05:54:39;;;;;;;;;;;;;;;21.01;72.17;101543.75;20702393;28;20959;-60
2023/07/11 06:05:01;;;;;;;;;;;;;;;21.16;71.92;101541.94;20720737;28;19929;-60
2023/07/11 06:15:23;;;;;;;;;;;;;;;21.17;71.79;101512.88;20709145;28;19925;-60
2023/07/11 06:25:44;;;;;;;;;;;;;;;21.36;71.70;101510.78;20695107;28;20451;-61
2023/07/11 06:36:06;;;;;;;;;;;;;;;21.64;71.06;101502.81;20699626;28;19921;-60
2023/07/11 06:46:28;;;;;;;;;;;;;;;21.87;70.92;101494.25;20702007;28;19937;-60
2023/07/11 06:56:49;;;;;;;;;;;;;;;22.19;69.50;101470.16;20699039;28;19921;-59
2023/07/11 07:07:11;;;;;;;;;;;;;;;22.53;69.28;101473.03;20707946;28;20564;-59
2023/07/11 07:17:32;;;;;;;;;;;;;;;22.83;69.19;101463.00;20693570;28;19944;-60
2023/07/11 07:27:54;;;;;;;;;;;;;;;23.16;67.79;101448.34;20688813;28;19927;-60
2023/07/11 07:38:16;;;;;;;;;;;;;;;23.45;67.11;101432.06;20672241;28;19928;-60
2023/07/11 07:48:37;;;;;;;;;;;;;;;23.74;66.73;101419.31;20709149;28;19936;-61
2023/07/11 07:58:59;;;;;;;;;;;;;;;24.09;66.74;101416.66;20692537;28;20410;-60
2023/07/11 08:09:20;;;;;;;;;;;;;;;24.36;64.70;101415.38;20728725;28;20016;-60
2023/07/11 08:19:42;;;;;;;;;;;;;;;24.66;64.66;101399.75;20688226;28;19929;-60
2023/07/11 08:30:06;;;;;;;;;;;;;;;24.82;65.68;101386.97;20675955;28;19925;-60
2023/07/11 08:40:30;;;;;;;;;;;;;;;25.11;63.96;101375.84;20688244;28;20611;-61
2023/07/11 08:51:26;;;;;;;;;;;;;;;25.34;64.83;101372.13;20676431;28;19930;-61
2023/07/11 09:02:00;;;;;;;;;;;;;;;25.53;64.51;101364.34;20684776;28;20005;-68
2023/07/11 09:12:40;;;;;;;;;;;;;;;25.89;62.72;101338.19;20713135;28;19940;-60
2023/07/11 09:23:08;;;;;;;;;;;;;;;26.23;60.84;101333.50;20690445;28;19973;-60
2023/07/11 09:33:31;;;;;;;;;;;;;;;26.54;62.20;101323.69;20671559;28;20792;-61
2023/07/11 09:43:53;;;;;;;;;;;;;;;26.87;61.33;101306.56;20663476;28;20039;-60
2023/07/11 09:54:19;;;;;;;;;;;;;;;27.05;55.27;101299.59;20690145;28;20387;-60
2023/07/11 10:04:41;;;;;;;;;;;;;;;27.19;60.17;101276.09;20656722;28;20315;-60
2023/07/11 10:15:12;;;;;;;;;;;;;;;27.57;58.39;101262.75;20676375;28;20432;-62
2023/07/11 10:25:34;;;;;;;;;;;;;;;27.91;56.12;101241.72;20681384;28;20253;-60
2023/07/11 10:36:13;;;;;;;;;;;;;;;28.23;54.58;101234.19;20684710;28;19925;-60
2023/07/11 10:46:38;;;;;;;;;;;;;;;28.46;56.10;101219.44;20662764;28;20363;-60
2023/07/11 10:57:04;;;;;;;;;;;;;;;28.89;55.99;101209.88;20669520;28;20020;-60
2023/07/11 11:07:43;;;;;;;;;;;;;;;29.26;54.59;101187.34;20694525;28;19952;-60
2023/07/11 11:18:31;;;;;;;;;;;;;;;29.53;53.23;101181.00;20670734;28;20360;-60
2023/07/11 11:29:14;;;;;;;;;;;;;;;29.84;54.65;101170.63;20702602;28;19933;-60
2023/07/11 11:39:55;;;;;;;;;;;;;;;30.06;51.51;101165.53;20677932;28;19932;-60
2023/07/11 11:50:22;;;;;;;;;;;;;;;30.06;54.96;101154.00;20673415;28;19970;-60
2023/07/11 12:01:04;;;;;;;;;;;;;;;30.13;55.69;101161.22;20672383;28;20011;-61
2023/07/11 12:11:30;;;;;;;;;;;;;;;29.94;55.14;101148.16;20673465;28;19929;-61
2023/07/11 12:21:56;;;;;;;;;;;;;;;29.84;51.91;101133.25;20695275;28;19925;-60
2023/07/11 12:32:33;;;;;;;;;;;;;;;29.75;53.11;101129.75;20677141;28;19925;-60
2023/07/11 12:42:56;;;;;;;;;;;;;;;29.70;54.35;101129.41;20667983;28;20646;-62
2023/07/11 12:53:17;;;;;;;;;;;;;;;29.67;53.25;101105.66;20677173;28;20264;-61
2023/07/11 13:03:39;;;;;;;;;;;;;;;29.62;55.04;101114.16;20687375;28;20113;-62
2023/07/11 13:14:01;;;;;;;;;;;;;;;29.67;55.05;101105.66;20696475;28;19926;-62
2023/07/11 13:24:27;;;;;;;;;;;;;;;29.87;54.51;101092.91;20687482;28;19925;-60
2023/07/11 13:34:52;;;;;;;;;;;;;;;29.85;53.72;101098.38;20694998;28;19925;-60
2023/07/11 13:45:18;;;;;;;;;;;;;;;29.85;55.08;101097.56;20697553;28;19925;-59
2023/07/11 13:55:44;;;;;;;;;;;;;;;29.73;53.30;101089.03;20682116;28;20818;-60
2023/07/11 14:06:11;;;;;;;;;;;;;;;29.75;52.46;101081.69;20683410;28;19973;-60
2023/07/11 14:16:32;;;;;;;;;;;;;;;29.87;54.31;101077.72;20676500;28;20316;-60
2023/07/11 14:26:54;;;;;;;;;;;;;;;29.74;53.99;101060.50;20666346;28;19932;-61
2023/07/11 14:37:16;;;;;;;;;;;;;;;29.93;51.77;101063.72;20692715;28;19936;-60
2023/07/11 14:47:38;;;;;;;;;;;;;;;29.96;52.05;101051.88;20682205;28;21006;-60
2023/07/11 14:57:59;;;;;;;;;;;;;;;29.89;51.66;101050.88;20673992;28;19925;-59
2023/07/11 15:08:22;;;;;;;;;;;;;;;30.05;51.38;101034.84;20687557;28;19922;-59
2023/07/11 15:18:46;;;;;;;;;;;;;;;29.87;54.95;101040.31;20685099;28;19925;-60
2023/07/11 15:29:12;;;;;;;;;;;;;;;30.10;53.99;101028.00;20686085;28;20387;-60
2023/07/11 15:39:34;;;;;;;;;;;;;;;30.12;53.76;101014.50;20679110;28;19932;-59
2023/07/11 15:49:55;;;;;;;;;;;;;;;29.95;54.71;101010.97;20716125;28;19922;-60
2023/07/11 16:00:19;;;;;;;;;;;;;;;30.10;51.31;101011.16;20692531;28;19922;-61
2023/07/11 16:10:40;;;;;;;;;;;;;;;30.09;51.77;101009.50;20693236;28;19932;-60
2023/07/11 16:21:02;;;;;;;;;;;;;;;29.93;51.18;101009.47;20700020;28;19937;-59
2023/07/11 16:31:23;;;;;;;;;;;;;;;29.77;54.77;101009.47;20685854;28;19948;-59
2023/07/11 16:41:48;;;;;;;;;;;;;;;29.76;55.10;101003.28;20691941;28;19948;-60
2023/07/11 16:52:11;;;;;;;;;;;;;;;29.99;53.62;100992.78;20713310;28;19932;-60
2023/07/11 17:02:33;;;;;;;;;;;;;;;29.78;53.68;100984.44;20731970;28;19929;-60
2023/07/11 17:12:54;;;;;;;;;;;;;;;29.60;54.20;100988.06;20700277;28;19929;-59
2023/07/11 17:23:17;;;;;;;;;;;;;;;29.37;55.10;100975.50;20718642;28;19929;-59
2023/07/11 17:33:38;;;;;;;;;;;;;;;29.23;55.01;100973.47;20737400;28;19925;-60
2023/07/11 17:44:00;;;;;;;;;;;;;;;29.09;54.53;100960.72;20706248;28;19968;-59
2023/07/11 17:54:33;;;;;;;;;;;;;;;28.96;55.03;100944.34;20737225;28;20019;-59
2023/07/11 18:04:56;;;;;;;;;;;;;;;28.97;56.45;100938.88;20736009;28;20058;-59
2023/07/11 18:15:19;;;;;;;;;;;;;;;28.73;57.18;100918.25;20705092;28;20031;-59
2023/07/11 18:25:41;;;;;;;;;;;;;;;28.42;58.69;100903.78;20704259;28;19931;-59
2023/07/11 18:36:03;;;;;;;;;;;;;;;28.17;59.81;100893.97;20706105;28;20356;-59
2023/07/11 18:46:24;;;;;;;;;;;;;;;27.99;60.38;100879.91;20706361;28;19929;-59
2023/07/11 18:56:47;;;;;;;;;;;;;;;27.44;62.37;100883.75;20720009;28;19952;-59
2023/07/11 19:07:10;;;;;;;;;;;;;;;26.26;66.28;100903.25;20724974;28;19925;-60
2023/07/11 19:17:31;;;;;;;;;;;;;;;25.75;68.45;100895.63;20700541;28;19928;-60
2023/07/11 19:27:59;;;;;;;;;;;;;;;25.19;69.31;100907.88;20703083;28;19925;-61
2023/07/11 19:38:22;;;;;;;;;;;;;;;24.87;70.75;100897.50;20730735;28;19928;-59
2023/07/11 19:48:44;;;;;;;;;;;;;;;24.70;70.85;100900.78;20703376;28;19929;-59
2023/07/11 19:59:05;;;;;;;;;;;;;;;24.41;72.00;100891.88;20702900;28;19925;-59
2023/07/11 20:09:27;;;;;;;;;;;;;;;24.33;71.74;100881.13;20715975;28;19925;-61
2023/07/11 20:19:48;;;;;;;;;;;;;;;24.17;71.46;100861.41;20702736;28;19925;-60
2023/07/11 20:30:14;;;;;;;;;;;;;;;24.11;71.17;100883.09;20699875;28;19972;-60
2023/07/11 20:40:36;;;;;;;;;;;;;;;24.15;71.62;100876.56;20726463;28;20812;-60
2023/07/11 20:50:57;;;;;;;;;;;;;;;23.88;72.24;100856.75;20698766;28;19925;-59
2023/07/11 21:01:20;;;;;;;;;;;;;;;23.76;72.62;100841.94;20698779;28;19925;-59
2023/07/11 21:11:45;;;;;;;;;;;;;;;23.62;73.82;100815.00;20692468;28;20318;-59
2023/07/11 21:22:10;;;;;;;;;;;;;;;23.50;73.91;100790.44;20713315;28;19929;-60
2023/07/11 21:32:31;;;;;;;;;;;;;;;23.39;74.31;100794.94;20723913;28;19921;-59
2023/07/11 21:42:53;;;;;;;;;;;;;;;23.32;73.57;100770.84;20710648;28;19929;-60
2023/07/11 21:53:16;;;;;;;;;;;;;;;23.27;73.98;100757.19;20703455;28;19936;-60
2023/07/11 22:03:37;;;;;;;;;;;;;;;23.14;74.48;100745.09;20709696;28;19921;-60
2023/07/11 22:13:59;;;;;;;;;;;;;;;23.09;74.73;100758.72;20701443;28;20059;-60
2023/07/11 22:24:21;;;;;;;;;;;;;;;22.89;74.93;100789.38;20708861;28;20027;-59
2023/07/11 22:34:42;;;;;;;;;;;;;;;22.84;75.59;100785.44;20689707;28;19921;-59
2023/07/11 22:45:04;;;;;;;;;;;;;;;22.81;75.46;100806.81;20705161;28;19940;-59
2023/07/11 22:55:26;;;;;;;;;;;;;;;22.70;75.18;100781.28;20700271;28;20599;-60
2023/07/11 23:05:47;;;;;;;;;;;;;;;22.78;75.25;100775.41;20704801;28;19956;-59
2023/07/11 23:16:12;;;;;;;;;;;;;;;22.58;76.33;100778.81;20706010;28;19930;-59
2023/07/11 23:26:33;;;;;;;;;;;;;;;22.43;75.90;100758.91;20718522;28;19921;-60
2023/07/11 23:36:55;;;;;;;;;;;;;;;22.13;79.10;100800.88;20649866;28;20547;-59
2023/07/11 23:47:16;;;;;;;;;;;;;;;21.42;88.70;100940.69;20641278;28;19929;-60
2023/07/11 23:57:38;;;;;;;;;;;;;;;20.72;98.90;100890.47;20680026;28;19927;-61
